createdAt,value
2018-01-15T00:00:04.408Z,31.10
2018-01-15T00:02:32.005Z,29.70
2018-01-15T00:04:59.611Z,30.47
2018-01-15T00:07:27.968Z,28.73
2018-01-15T00:09:55.537Z,26.27
2018-01-15T00:12:23.983Z,27.77
2018-01-15T00:14:51.625Z,28.27
2018-01-15T00:17:19.241Z,25.10
2018-01-15T00:19:47.592Z,28.20
2018-01-15T00:22:15.200Z,25.23
2018-01-15T00:24:42.776Z,30.37
2018-01-15T00:27:10.376Z,28.67
2018-01-15T00:29:37.958Z,29.70
2018-01-15T00:32:06.334Z,26.83
2018-01-15T00:34:34.688Z,25.00
2018-01-15T00:37:02.338Z,26.97
2018-01-15T00:39:29.994Z,23.77
2018-01-15T00:41:57.631Z,24.43
2018-01-15T00:44:25.212Z,28.77
2018-01-15T00:46:52.797Z,29.10
2018-01-15T00:49:20.399Z,32.73
2018-01-15T00:51:47.977Z,34.63
2018-01-15T00:54:15.586Z,38.83
2018-01-15T00:56:43.201Z,43.70
2018-01-15T00:59:10.807Z,43.90
2018-01-15T01:01:38.393Z,49.30
2018-01-15T01:04:06.760Z,43.63
2018-01-15T01:06:35.112Z,50.60
2018-01-15T01:09:02.731Z,44.17
2018-01-15T01:11:30.328Z,45.97
2018-01-15T01:13:57.925Z,44.23
2018-01-15T01:16:26.310Z,45.97
2018-01-15T01:18:54.657Z,47.73
2018-01-15T01:21:22.265Z,46.60
2018-01-15T01:23:49.861Z,44.30
2018-01-15T01:26:17.442Z,43.50
2018-01-15T01:28:45.086Z,49.80
2018-01-15T01:31:12.696Z,46.20
2018-01-15T01:33:40.326Z,45.50
2018-01-15T01:36:07.916Z,47.63
2018-01-15T01:38:35.524Z,47.87
2018-01-15T01:41:03.102Z,46.73
2018-01-15T01:43:30.714Z,47.47
2018-01-15T01:45:58.288Z,40.63
2018-01-15T01:48:25.901Z,43.43
2018-01-15T01:50:54.338Z,39.97
2018-01-15T01:53:21.934Z,41.23
2018-01-15T01:55:50.322Z,37.63
2018-01-15T01:58:18.672Z,41.83
2018-01-15T02:00:46.276Z,38.47
2018-01-15T02:03:13.881Z,37.00
2018-01-15T02:05:41.505Z,37.60
2018-01-15T02:08:09.088Z,40.23
2018-01-15T02:10:36.682Z,38.63
2018-01-15T02:13:04.643Z,42.07
2018-01-15T02:15:32.229Z,40.37
2018-01-15T02:18:00.635Z,39.53
2018-01-15T02:20:28.212Z,39.03
2018-01-15T02:22:55.812Z,41.37
2018-01-15T02:25:23.393Z,44.87
2018-01-15T02:27:51.781Z,40.20
2018-01-15T02:30:19.401Z,47.53
2018-01-15T02:32:47.011Z,43.07
2018-01-15T02:35:14.935Z,42.10
2018-01-15T02:37:42.526Z,39.97
2018-01-15T02:40:10.869Z,37.50
2018-01-15T02:42:38.709Z,40.73
2018-01-15T02:45:06.328Z,45.13
2018-01-15T02:47:34.741Z,47.57
2018-01-15T02:50:02.358Z,49.43
2018-01-15T02:52:30.773Z,47.30
2018-01-15T02:54:58.378Z,43.97
2018-01-15T02:57:26.042Z,45.73
2018-01-15T02:59:53.646Z,48.40
2018-01-15T03:02:21.236Z,52.47
2018-01-15T03:04:48.840Z,51.70
2018-01-15T03:07:17.258Z,47.90
2018-01-15T03:09:44.864Z,48.10
2018-01-15T03:12:13.209Z,48.33
2018-01-15T03:14:40.813Z,53.43
2018-01-15T03:17:09.332Z,58.00
2018-01-15T03:19:36.909Z,50.50
2018-01-15T03:22:04.564Z,49.93
2018-01-15T03:24:32.152Z,53.10
2018-01-15T03:26:59.752Z,52.87
2018-01-15T03:29:28.128Z,48.80
2018-01-15T03:31:56.500Z,55.33
2018-01-15T03:34:24.857Z,56.80
2018-01-15T03:36:52.465Z,57.10
2018-01-15T03:39:20.052Z,58.73
2018-01-15T03:41:47.658Z,57.37
2018-01-15T03:44:16.005Z,52.83
2018-01-15T03:46:43.595Z,53.27
2018-01-15T03:49:11.944Z,50.97
2018-01-15T03:51:39.577Z,50.80
2018-01-15T03:54:07.175Z,55.40
2018-01-15T03:56:34.770Z,50.80
2018-01-15T03:59:02.383Z,50.33
2018-01-15T04:01:30.009Z,52.50
2018-01-15T04:03:57.640Z,49.13
2018-01-15T04:06:26.642Z,50.03
2018-01-15T04:08:55.013Z,50.73
2018-01-15T04:11:23.361Z,49.53
2018-01-15T04:13:50.945Z,48.67
2018-01-15T04:16:19.295Z,57.00
2018-01-15T04:18:46.923Z,51.53
2018-01-15T04:21:14.518Z,48.27
2018-01-15T04:23:42.098Z,48.60
2018-01-15T04:26:09.737Z,47.77
2018-01-15T04:28:37.334Z,51.20
2018-01-15T04:31:05.714Z,48.70
2018-01-15T04:33:33.312Z,42.67
2018-01-15T04:36:00.894Z,51.97
2018-01-15T04:38:28.475Z,46.30
2018-01-15T04:40:56.093Z,48.90
2018-01-15T04:43:23.678Z,50.37
2018-01-15T04:45:51.293Z,55.87
2018-01-15T04:48:18.881Z,45.90
2018-01-15T04:50:46.500Z,53.50
2018-01-15T04:53:14.868Z,47.97
2018-01-15T04:55:43.521Z,45.77
2018-01-15T04:58:11.141Z,59.77
2018-01-15T05:00:38.753Z,49.07
2018-01-15T05:03:06.458Z,52.10
2018-01-15T05:05:34.042Z,47.37
2018-01-15T05:08:01.642Z,48.30
2018-01-15T05:10:30.014Z,52.03
2018-01-15T05:12:57.630Z,49.40
2018-01-15T05:15:25.216Z,53.47
2018-01-15T05:17:52.876Z,54.43
2018-01-15T05:20:21.247Z,55.67
2018-01-15T05:22:49.125Z,51.83
2018-01-15T05:25:16.738Z,52.20
2018-01-15T05:27:44.341Z,53.43
2018-01-15T05:30:11.929Z,53.20
2018-01-15T05:32:39.575Z,52.63
2018-01-15T05:35:07.165Z,53.47
2018-01-15T05:37:35.561Z,64.13
2018-01-15T05:40:03.177Z,54.47
2018-01-15T05:42:31.561Z,55.97
2018-01-15T05:45:05.535Z,58.47
2018-01-15T05:47:33.142Z,56.80
2018-01-15T05:50:01.514Z,53.43
2018-01-15T05:52:29.106Z,53.43
2018-01-15T05:54:56.826Z,59.43
2018-01-15T05:57:24.417Z,58.60
2018-01-15T05:59:52.781Z,62.57
2018-01-15T06:02:20.433Z,54.00
2018-01-15T06:04:48.032Z,59.20
2018-01-15T06:07:15.631Z,55.20
2018-01-15T06:09:43.216Z,60.60
2018-01-15T06:12:10.818Z,58.37
2018-01-15T06:14:38.525Z,57.83
2018-01-15T06:17:06.129Z,58.83
2018-01-15T06:19:33.721Z,62.33
2018-01-15T06:22:01.377Z,66.77
2018-01-15T06:24:28.964Z,61.40
2018-01-15T06:26:56.565Z,55.07
2018-01-15T06:29:24.165Z,62.30
2018-01-15T06:31:51.881Z,60.80
2018-01-15T06:34:20.230Z,57.17
2018-01-15T06:36:47.979Z,58.77
2018-01-15T06:39:15.594Z,58.40
2018-01-15T06:41:43.983Z,69.83
2018-01-15T06:44:11.635Z,68.93
2018-01-15T06:46:39.977Z,60.07
2018-01-15T06:49:07.612Z,57.23
2018-01-15T06:51:35.197Z,57.03
2018-01-15T06:54:02.854Z,60.33
2018-01-15T06:56:30.445Z,57.33
2018-01-15T06:58:58.852Z,56.07
2018-01-15T07:01:26.513Z,58.40
2018-01-15T07:03:54.097Z,62.53
2018-01-15T07:06:21.714Z,67.37
2018-01-15T07:08:50.081Z,64.93
2018-01-15T07:11:18.457Z,57.40
2018-01-15T07:13:46.858Z,62.07
2018-01-15T07:16:14.485Z,70.23
2018-01-15T07:18:42.349Z,63.57
2018-01-15T07:21:10.221Z,64.63
2018-01-15T07:23:37.801Z,58.93
2018-01-15T07:26:06.193Z,74.23
2018-01-15T07:28:33.824Z,71.57
2018-01-15T07:31:01.433Z,62.13
2018-01-15T07:33:29.045Z,72.63
2018-01-15T07:35:56.642Z,69.33
2018-01-15T07:38:24.297Z,71.63
2018-01-15T07:40:51.901Z,66.23
2018-01-15T07:43:19.553Z,70.07
2018-01-15T07:45:47.149Z,64.50
2018-01-15T07:48:14.729Z,127.70
2018-01-15T07:50:43.088Z,69.77
2018-01-15T07:53:11.464Z,67.50
2018-01-15T07:55:39.072Z,76.83
2018-01-15T07:58:06.672Z,73.93
2018-01-15T08:00:34.332Z,59.13
2018-01-15T08:03:01.993Z,65.40
2018-01-15T08:05:29.600Z,72.97
2018-01-15T08:07:57.200Z,67.17
2018-01-15T08:10:24.801Z,69.67
2018-01-15T08:12:53.174Z,67.20
2018-01-15T08:15:21.521Z,62.67
2018-01-15T08:17:49.122Z,65.00
2018-01-15T08:20:17.525Z,59.77
2018-01-15T08:22:45.125Z,62.37
2018-01-15T08:25:12.714Z,64.87
2018-01-15T08:27:41.091Z,58.20
2018-01-15T08:30:08.681Z,66.13
2018-01-15T08:32:36.269Z,64.17
2018-01-15T08:35:03.877Z,62.47
2018-01-15T08:37:32.232Z,64.37
2018-01-15T08:39:59.862Z,72.00
2018-01-15T08:42:27.445Z,68.60
2018-01-15T08:44:55.045Z,69.60
2018-01-15T08:47:23.453Z,66.73
2018-01-15T08:49:51.078Z,64.90
2018-01-15T08:52:19.445Z,64.73
2018-01-15T08:54:47.062Z,60.27
2018-01-15T08:57:14.661Z,59.67
2018-01-15T08:59:42.250Z,56.20
2018-01-15T09:02:09.855Z,53.97
2018-01-15T09:04:37.428Z,57.50
2018-01-15T09:07:05.053Z,61.03
2018-01-15T09:09:32.638Z,57.53
2018-01-15T09:12:00.229Z,56.87
2018-01-15T09:14:28.602Z,57.93
2018-01-15T09:16:57.000Z,59.80
2018-01-15T09:19:25.345Z,55.40
2018-01-15T09:21:52.941Z,65.90
2018-01-15T09:24:21.376Z,65.33
2018-01-15T09:26:48.961Z,57.30
2018-01-15T09:29:17.325Z,59.73
2018-01-15T09:31:44.912Z,59.40
2018-01-15T09:34:13.349Z,62.83
2018-01-15T09:36:40.967Z,64.13
2018-01-15T09:39:08.585Z,57.97
2018-01-15T09:41:36.172Z,60.83
2018-01-15T09:44:04.539Z,59.83
2018-01-15T09:46:32.912Z,64.20
2018-01-15T09:49:00.501Z,62.20
2018-01-15T09:51:28.108Z,67.10
2018-01-15T09:53:55.692Z,63.33
2018-01-15T09:56:23.314Z,61.73
2018-01-15T09:58:50.900Z,63.60
2018-01-15T10:01:18.505Z,64.57
2018-01-15T10:03:46.082Z,74.17
2018-01-15T10:06:13.690Z,58.23
2018-01-15T10:08:41.268Z,60.90
2018-01-15T10:11:09.640Z,63.50
2018-01-15T10:13:37.990Z,68.10
2018-01-15T10:16:05.648Z,57.93
2018-01-15T10:18:33.224Z,62.60
2018-01-15T10:21:00.830Z,58.23
2018-01-15T10:23:28.521Z,62.43
2018-01-15T10:25:56.117Z,63.70
2018-01-15T10:28:24.482Z,61.90
2018-01-15T10:30:52.082Z,61.20
2018-01-15T10:33:19.689Z,61.90
2018-01-15T10:35:47.285Z,64.37
2018-01-15T10:38:15.695Z,61.43
2018-01-15T10:40:43.321Z,59.53
2018-01-15T10:43:11.708Z,60.17
2018-01-15T10:45:40.055Z,59.93
2018-01-15T10:48:07.678Z,58.73
2018-01-15T10:50:35.270Z,59.53
2018-01-15T10:53:02.911Z,67.47
2018-01-15T10:55:30.548Z,67.70
2018-01-15T10:57:58.153Z,66.23
2018-01-15T11:00:45.172Z,63.10
2018-01-15T11:03:12.808Z,62.97
2018-01-15T11:05:40.379Z,63.93
2018-01-15T11:08:08.035Z,60.50
2018-01-15T11:10:35.649Z,58.10
2018-01-15T11:13:04.077Z,60.53
2018-01-15T11:15:32.488Z,59.40
2018-01-15T11:18:00.102Z,61.57
2018-01-15T11:20:27.705Z,60.43
2018-01-15T11:22:55.298Z,58.40
2018-01-15T11:25:22.913Z,57.90
2018-01-15T11:27:50.523Z,56.57
2018-01-15T11:30:18.127Z,63.63
2018-01-15T11:32:45.724Z,60.10
2018-01-15T11:35:14.113Z,62.97
2018-01-15T11:37:42.497Z,63.77
2018-01-15T11:40:10.097Z,56.27
2018-01-15T11:42:37.693Z,56.20
2018-01-15T11:45:05.268Z,58.63
2018-01-15T11:47:33.670Z,54.50
2018-01-15T11:50:01.333Z,61.47
2018-01-15T11:52:28.941Z,55.50
2018-01-15T11:54:56.513Z,54.00
2018-01-15T11:57:24.104Z,60.10
2018-01-15T11:59:51.705Z,57.03
2018-01-15T12:02:19.282Z,54.53
2018-01-15T12:04:47.652Z,55.77
2018-01-15T12:07:15.232Z,54.20
2018-01-15T12:09:42.844Z,54.63
2018-01-15T12:12:10.425Z,56.47
2018-01-15T12:14:38.041Z,54.60
2018-01-15T12:17:05.632Z,50.77
2018-01-15T12:19:33.239Z,49.00
2018-01-15T12:22:00.830Z,48.10
2018-01-15T12:24:28.536Z,57.23
2018-01-15T12:26:56.141Z,47.47
2018-01-15T12:29:23.746Z,56.27
2018-01-15T12:31:51.366Z,47.10
2018-01-15T12:34:18.948Z,49.87
2018-01-15T12:36:46.561Z,53.13
2018-01-15T12:39:14.941Z,48.07
2018-01-15T12:41:43.309Z,50.80
2018-01-15T12:44:10.949Z,48.03
2018-01-15T12:46:38.537Z,48.53
2018-01-15T12:49:06.905Z,55.47
2018-01-15T12:51:34.534Z,46.23
2018-01-15T12:54:02.112Z,48.00
2018-01-15T12:56:29.722Z,49.30
2018-01-15T12:58:57.345Z,49.07
2018-01-15T13:01:24.937Z,50.07
2018-01-15T13:03:53.278Z,48.17
2018-01-15T13:06:20.897Z,52.57
2018-01-15T13:08:49.413Z,48.20
2018-01-15T13:11:17.037Z,51.37
2018-01-15T13:13:44.649Z,53.27
2018-01-15T13:16:12.228Z,50.80
2018-01-15T13:18:40.595Z,50.23
2018-01-15T13:21:08.972Z,45.37
2018-01-15T13:23:36.675Z,47.13
2018-01-15T13:26:04.177Z,54.13
2018-01-15T13:28:31.783Z,48.13
2018-01-15T13:30:59.389Z,51.20
2018-01-15T13:33:26.972Z,54.83
2018-01-15T13:35:54.557Z,46.03
2018-01-15T13:38:22.183Z,47.20
2018-01-15T13:40:49.801Z,50.57
2018-01-15T13:43:17.396Z,44.43
2018-01-15T13:45:44.993Z,45.00
2018-01-15T13:48:12.709Z,47.40
2018-01-15T13:50:40.329Z,46.30
2018-01-15T13:53:07.947Z,46.67
2018-01-15T13:55:35.550Z,42.70
2018-01-15T13:58:03.140Z,46.93
2018-01-15T14:00:30.751Z,47.17
2018-01-15T14:02:59.105Z,41.60
2018-01-15T14:05:26.712Z,40.00
2018-01-15T14:07:54.324Z,43.97
2018-01-15T14:10:21.923Z,47.97
2018-01-15T14:12:50.289Z,42.43
2018-01-15T14:15:18.669Z,43.20
2018-01-15T14:17:47.050Z,43.13
2018-01-15T14:20:15.404Z,44.50
2018-01-15T14:22:43.068Z,43.10
2018-01-15T14:25:10.673Z,41.17
2018-01-15T14:27:38.269Z,44.27
2018-01-15T14:30:05.877Z,42.20
2018-01-15T14:32:34.237Z,40.87
2018-01-15T14:35:02.601Z,39.63
2018-01-15T14:37:30.213Z,43.13
2018-01-15T14:39:57.876Z,39.83
2018-01-15T14:42:25.410Z,40.83
2018-01-15T14:44:53.771Z,40.80
2018-01-15T14:47:21.594Z,44.87
2018-01-15T14:49:49.181Z,41.00
2018-01-15T14:52:16.768Z,45.23
2018-01-15T14:54:45.168Z,40.30
2018-01-15T14:57:12.780Z,45.37
2018-01-15T14:59:40.365Z,44.83
2018-01-15T15:02:08.750Z,43.07
2018-01-15T15:04:36.383Z,38.67
2018-01-15T15:07:04.773Z,50.63
2018-01-15T15:09:32.393Z,41.07
2018-01-15T15:12:00.030Z,43.30
2018-01-15T15:14:28.158Z,38.10
2018-01-15T15:16:55.754Z,38.87
2018-01-15T15:19:23.356Z,49.87
2018-01-15T15:21:50.935Z,42.90
2018-01-15T15:24:18.577Z,43.90
2018-01-15T15:26:46.156Z,43.40
2018-01-15T15:29:13.864Z,50.63
2018-01-15T15:31:41.460Z,54.57
2018-01-15T15:34:09.040Z,48.40
2018-01-15T15:36:36.708Z,49.50
2018-01-15T15:39:04.281Z,42.67
2018-01-15T15:41:32.653Z,42.97
2018-01-15T15:44:01.018Z,49.07
2018-01-15T15:46:28.654Z,50.30
2018-01-15T15:48:56.237Z,46.30
2018-01-15T15:51:23.849Z,44.77
2018-01-15T15:53:51.429Z,43.03
2018-01-15T15:56:19.033Z,42.90
2018-01-15T15:58:46.616Z,43.50
2018-01-15T16:01:14.259Z,42.47
2018-01-15T16:03:41.892Z,43.00
2018-01-15T16:06:09.485Z,43.23
2018-01-15T16:08:37.865Z,39.60
2018-01-15T16:11:06.263Z,44.63
2018-01-15T16:13:33.889Z,44.33
2018-01-15T16:16:01.471Z,51.53
2018-01-15T16:18:29.842Z,52.87
2018-01-15T16:20:58.215Z,45.10
2018-01-15T16:23:26.603Z,36.43
2018-01-15T16:25:54.949Z,35.13
2018-01-15T16:28:22.548Z,34.63
2018-01-15T16:30:50.893Z,31.73
2018-01-15T16:33:18.700Z,34.70
2018-01-15T16:35:46.274Z,37.87
2018-01-15T16:38:13.892Z,38.83
2018-01-15T16:40:42.271Z,39.30
2018-01-15T16:43:10.617Z,43.80
2018-01-15T16:45:38.225Z,44.50
2018-01-15T16:48:06.572Z,46.83
2018-01-15T16:50:34.246Z,39.60
2018-01-15T16:53:01.869Z,42.57
2018-01-15T16:55:29.453Z,35.43
2018-01-15T16:57:57.048Z,33.90
2018-01-15T17:00:25.438Z,42.27
2018-01-15T17:02:53.036Z,47.50
2018-01-15T17:05:20.656Z,48.03
2018-01-15T17:07:48.265Z,42.23
2018-01-15T17:10:15.882Z,41.97
2018-01-15T17:12:43.605Z,37.87
2018-01-15T17:15:11.248Z,47.67
2018-01-15T17:17:38.860Z,49.17
2018-01-15T17:20:06.444Z,76.53
2018-01-15T17:22:34.037Z,72.37
2018-01-15T17:25:01.634Z,83.53
2018-01-15T17:27:30.018Z,95.27
2018-01-15T17:29:57.641Z,82.23
2018-01-15T17:32:25.252Z,73.60
2018-01-15T17:34:52.957Z,58.30
2018-01-15T17:37:20.574Z,52.50
2018-01-15T17:39:48.180Z,50.90
2018-01-15T17:42:15.796Z,50.77
2018-01-15T17:44:43.405Z,51.23
2018-01-15T17:47:10.998Z,47.37
2018-01-15T17:49:38.612Z,45.37
2018-01-15T17:52:06.165Z,39.57
2018-01-15T17:54:33.780Z,43.00
2018-01-15T17:57:01.376Z,47.67
2018-01-15T17:59:28.996Z,105.17
2018-01-15T18:01:57.389Z,132.43
2018-01-15T18:04:24.999Z,98.60
2018-01-15T18:06:52.606Z,83.20
2018-01-15T18:09:20.221Z,59.97
2018-01-15T18:11:47.830Z,71.80
2018-01-15T18:14:15.408Z,67.07
2018-01-15T18:16:43.035Z,63.27
2018-01-15T18:19:10.708Z,64.77
2018-01-15T18:21:39.193Z,64.03
2018-01-15T18:24:06.778Z,61.50
2018-01-15T18:26:34.416Z,54.50
2018-01-15T18:29:02.005Z,48.97
2018-01-15T18:31:29.603Z,39.73
2018-01-15T18:33:57.209Z,49.77
2018-01-15T18:36:24.827Z,39.30
2018-01-15T18:38:53.230Z,45.73
2018-01-15T18:41:20.810Z,40.40
2018-01-15T18:43:48.417Z,38.13
2018-01-15T18:46:16.048Z,38.20
2018-01-15T18:48:43.662Z,42.33
2018-01-15T18:51:12.034Z,39.93
2018-01-15T18:53:40.426Z,43.60
2018-01-15T18:56:08.030Z,45.27
2018-01-15T18:58:36.401Z,46.97
2018-01-15T19:01:04.009Z,47.67
2018-01-15T19:03:32.388Z,44.47
2018-01-15T19:06:00.761Z,41.07
2018-01-15T19:08:28.349Z,34.93
2018-01-15T19:10:56.022Z,35.70
2018-01-15T19:13:23.618Z,40.03
2018-01-15T19:15:51.233Z,43.13
2018-01-15T19:18:18.841Z,37.33
2018-01-15T19:20:46.438Z,34.93
2018-01-15T19:23:14.282Z,35.50
2018-01-15T19:25:41.874Z,40.27
2018-01-15T19:28:09.485Z,43.70
2018-01-15T19:30:37.105Z,37.40
2018-01-15T19:33:04.732Z,33.27
2018-01-15T19:35:34.798Z,32.93
2018-01-15T19:38:02.455Z,39.97
2018-01-15T19:40:30.255Z,30.77
2018-01-15T19:43:03.458Z,34.83
2018-01-15T19:45:51.139Z,35.37
2018-01-15T19:48:24.319Z,36.40
2018-01-15T19:50:57.537Z,32.33
2018-01-15T19:53:30.687Z,37.97
2018-01-15T19:56:04.979Z,37.50
2018-01-15T19:58:38.838Z,34.13
2018-01-15T20:01:11.973Z,39.67
2018-01-15T20:03:45.348Z,34.97
2018-01-15T20:06:18.475Z,40.80
2018-01-15T20:08:52.430Z,35.80
2018-01-15T20:11:20.009Z,41.30
2018-01-15T20:13:47.633Z,39.47
2018-01-15T20:16:15.224Z,60.73
2018-01-15T20:18:42.840Z,53.57
2018-01-15T20:21:11.203Z,41.00
2018-01-15T20:23:39.598Z,35.90
2018-01-15T20:26:07.952Z,35.80
2018-01-15T20:28:35.576Z,36.80
2018-01-15T20:31:03.153Z,35.37
2018-01-15T20:33:30.781Z,42.43
2018-01-15T20:35:58.403Z,36.87
2018-01-15T20:38:26.757Z,35.50
2018-01-15T20:40:54.403Z,37.77
2018-01-15T20:43:21.990Z,38.67
2018-01-15T20:45:49.702Z,32.67
2018-01-15T20:48:17.317Z,38.73
2018-01-15T20:50:45.015Z,37.77
2018-01-15T20:53:12.609Z,34.53
2018-01-15T20:55:40.224Z,35.73
2018-01-15T20:58:08.575Z,36.70
2018-01-15T21:00:38.941Z,31.50
2018-01-15T21:03:06.548Z,33.17
2018-01-15T21:05:34.149Z,28.93
2018-01-15T21:08:02.524Z,27.63
2018-01-15T21:10:30.874Z,31.77
2018-01-15T21:12:58.488Z,34.53
2018-01-15T21:15:26.096Z,25.73
2018-01-15T21:17:53.718Z,22.87
2018-01-15T21:20:21.317Z,26.83
2018-01-15T21:22:48.922Z,25.63
2018-01-15T21:25:16.585Z,25.43
2018-01-15T21:27:44.197Z,25.03
2018-01-15T21:30:11.805Z,22.70
2018-01-15T21:32:39.470Z,22.47
2018-01-15T21:35:07.085Z,23.00
2018-01-15T21:37:34.699Z,22.60
2018-01-15T21:40:02.408Z,22.50
2018-01-15T21:42:30.029Z,21.53
2018-01-15T21:44:57.628Z,21.77
2018-01-15T21:47:25.224Z,22.77
2018-01-15T21:49:52.848Z,19.20
2018-01-15T21:52:20.494Z,20.83
2018-01-15T21:54:48.101Z,18.53
2018-01-15T21:57:16.508Z,19.73
2018-01-15T21:59:44.109Z,22.77
2018-01-15T22:02:11.745Z,20.67
2018-01-15T22:04:39.341Z,22.60
2018-01-15T22:07:06.989Z,23.93
2018-01-15T22:09:35.385Z,26.43
2018-01-15T22:12:03.796Z,23.27
2018-01-15T22:14:32.130Z,24.40
2018-01-15T22:16:59.709Z,25.90
2018-01-15T22:19:28.086Z,23.33
2018-01-15T22:21:56.437Z,23.70
2018-01-15T22:24:24.045Z,23.97
2018-01-15T22:26:51.693Z,19.63
2018-01-15T22:29:20.073Z,19.50
2018-01-15T22:31:48.446Z,18.27
2018-01-15T22:34:16.863Z,16.73
2018-01-15T22:36:44.500Z,16.80
2018-01-15T22:39:12.249Z,15.77
2018-01-15T22:41:40.651Z,13.03
2018-01-15T22:44:08.237Z,16.10
2018-01-15T22:46:35.869Z,14.97
2018-01-15T22:49:03.477Z,13.70
2018-01-15T22:51:31.069Z,13.87
2018-01-15T22:53:59.446Z,13.57
2018-01-15T22:56:27.815Z,13.37
2018-01-15T22:58:56.175Z,13.80
2018-01-15T23:01:23.821Z,10.83
2018-01-15T23:03:51.433Z,12.03
2018-01-15T23:06:19.820Z,13.80
2018-01-15T23:08:47.419Z,18.50
2018-01-15T23:11:15.774Z,13.57
2018-01-15T23:13:43.393Z,11.60
2018-01-15T23:16:11.792Z,10.80
2018-01-15T23:18:40.173Z,10.10
2018-01-15T23:21:07.784Z,10.63
2018-01-15T23:23:35.392Z,9.20
2018-01-15T23:26:03.725Z,11.37
2018-01-15T23:28:31.352Z,9.67
2018-01-15T23:30:58.976Z,11.00
2018-01-15T23:33:27.341Z,9.90
2018-01-15T23:35:56.371Z,9.10
2018-01-15T23:38:23.949Z,8.20
2018-01-15T23:40:51.607Z,11.97
2018-01-15T23:43:19.206Z,9.50
2018-01-15T23:45:46.804Z,10.27
2018-01-15T23:48:15.185Z,9.80
2018-01-15T23:50:42.789Z,9.57
2018-01-15T23:53:10.361Z,11.47
2018-01-15T23:55:37.982Z,10.00
2018-01-15T23:58:05.564Z,10.17
